Time;durP1;ratioP1;P1;durP2;ratioP2;P2;SDS_P1;SDS_P2;PMS_P1;PMS_P2;Temp;Humidity;BMP_temperature;BMP_pressure;BME280_temperature;BME280_humidity;BME280_pressure;Samples;Min_cycle;Max_cycle;Signal;HPM_P1;HPM_P2
2022/03/04 00:00:57;;;;;;;;;40.00;35.00;;;;;12.19;61.46;101009.97;5050428;28;45436;-57
2022/03/04 00:03:23;;;;;;;;;50.50;40.00;;;;;12.25;62.03;101022.00;5047182;28;45514;-57
2022/03/04 00:05:48;;;;;;;;;40.25;34.50;;;;;12.02;61.43;100979.31;5050153;28;45691;-58
2022/03/04 00:08:14;;;;;;;;;38.75;35.00;;;;;12.27;61.69;101015.22;5052608;28;45377;-58
2022/03/04 00:10:39;;;;;;;;;44.50;37.75;;;;;12.29;61.88;101028.78;5037280;28;45527;-56
2022/03/04 00:13:05;;;;;;;;;45.00;38.00;;;;;12.11;61.89;100993.72;5023869;27;46288;-51
2022/03/04 00:15:31;;;;;;;;;48.25;37.50;;;;;12.29;61.75;101024.13;5055362;28;45369;-54
2022/03/04 00:17:57;;;;;;;;;50.50;39.25;;;;;12.23;61.24;101007.63;5055360;28;45452;-57
2022/03/04 00:20:22;;;;;;;;;51.50;41.75;;;;;12.25;61.55;101014.63;5055672;28;45427;-57
2022/03/04 00:22:48;;;;;;;;;44.50;38.00;;;;;12.17;62.05;101014.84;5055292;28;46173;-56
2022/03/04 00:25:16;;;;;;;;;49.00;38.00;;;;;12.13;62.43;101016.34;5054074;28;45359;-55
2022/03/04 00:27:41;;;;;;;;;53.20;42.20;;;;;12.14;62.39;101023.53;5037805;28;45402;-56
2022/03/04 00:30:08;;;;;;;;;51.75;43.00;;;;;12.05;62.67;101026.50;5055282;28;45301;-55
2022/03/04 00:32:35;;;;;;;;;49.40;40.00;;;;;11.50;62.46;100933.28;5053876;28;47593;-56
2022/03/04 00:35:01;;;;;;;;;45.40;38.40;;;;;12.12;62.70;101023.72;5055442;28;45357;-55
2022/03/04 00:37:27;;;;;;;;;48.80;39.00;;;;;11.83;62.37;100965.38;5070712;28;45400;-56
2022/03/04 00:39:52;;;;;;;;;47.00;40.25;;;;;11.85;61.98;100970.66;5055678;28;45318;-54
2022/03/04 00:42:18;;;;;;;;;45.00;39.25;;;;;12.17;61.97;101018.44;5070694;28;48450;-55
2022/03/04 00:44:43;;;;;;;;;44.75;38.50;;;;;12.16;62.15;101018.66;5055006;28;45440;-55
2022/03/04 00:47:09;;;;;;;;;48.00;37.50;;;;;12.11;62.02;101015.72;5054826;28;45402;-58
2022/03/04 00:49:34;;;;;;;;;46.50;37.00;;;;;12.11;62.32;101026.72;5074236;28;45566;-56
2022/03/04 00:52:00;;;;;;;;;46.50;36.50;;;;;12.02;61.96;101015.06;5057197;28;47988;-54
2022/03/04 00:54:26;;;;;;;;;40.00;36.80;;;;;12.01;62.13;101013.38;5056736;28;45496;-54
2022/03/04 00:56:51;;;;;;;;;50.75;38.50;;;;;12.02;62.59;101013.13;5058393;28;45369;-55
2022/03/04 00:59:17;;;;;;;;;49.50;38.50;;;;;12.01;62.48;101016.97;5058870;28;45400;-56
2022/03/04 01:01:43;;;;;;;;;48.75;38.00;;;;;11.99;62.50;101023.72;5090584;27;46927;-56
2022/03/04 01:04:08;;;;;;;;;56.25;44.25;;;;;11.77;62.52;100991.84;5058139;28;45325;-57
2022/03/04 01:06:34;;;;;;;;;48.00;39.25;;;;;11.89;63.07;101021.41;5056809;28;45430;-55
2022/03/04 01:08:59;;;;;;;;;50.00;41.00;;;;;11.85;63.27;101025.69;5058035;28;45627;-55
2022/03/04 01:11:25;;;;;;;;;55.50;39.75;;;;;11.85;62.99;101020.19;5058117;28;45297;-53
2022/03/04 01:13:50;;;;;;;;;53.50;38.00;;;;;11.85;63.01;101031.19;5057840;28;45461;-51
2022/03/04 01:16:16;;;;;;;;;47.25;39.50;;;;;11.87;63.42;101037.31;5057984;28;45301;-57
2022/03/04 01:18:42;;;;;;;;;44.50;37.00;;;;;11.85;63.48;101028.44;5058486;28;45374;-57
2022/03/04 01:21:07;;;;;;;;;37.50;30.75;;;;;11.86;63.12;101027.38;5057750;28;45423;-56
2022/03/04 01:23:34;;;;;;;;;43.75;36.50;;;;;11.68;63.27;100989.53;5058055;28;45536;-54
2022/03/04 01:26:00;;;;;;;;;47.20;40.20;;;;;11.86;62.89;101028.22;5056549;28;45529;-53
2022/03/04 01:28:26;;;;;;;;;45.50;37.75;;;;;11.83;62.87;101011.28;5056915;28;45667;-53
2022/03/04 01:30:51;;;;;;;;;45.25;37.00;;;;;11.83;62.69;101017.63;5090149;27;47419;-54
2022/03/04 01:33:17;;;;;;;;;45.50;39.00;;;;;11.90;62.82;101031.38;5056590;28;45398;-57
2022/03/04 01:35:42;;;;;;;;;49.00;38.25;;;;;11.78;62.99;101014.66;5056611;28;45376;-56
2022/03/04 01:38:08;;;;;;;;;45.25;37.25;;;;;11.80;63.31;101018.91;5057921;28;45624;-57
2022/03/04 01:40:33;;;;;;;;;46.00;37.00;;;;;11.90;62.76;101023.13;5072898;28;46318;-58
2022/03/04 01:42:59;;;;;;;;;48.00;39.25;;;;;11.89;62.74;101013.16;5056530;28;45235;-55
2022/03/04 01:45:24;;;;;;;;;41.75;36.00;;;;;11.92;62.96;101015.50;5057587;28;45354;-54
2022/03/04 01:47:50;;;;;;;;;45.50;37.50;;;;;11.96;63.06;101026.94;5057890;28;45219;-55
2022/03/04 01:50:16;;;;;;;;;56.75;39.25;;;;;11.93;62.78;101011.69;5057200;28;45767;-57
2022/03/04 01:52:41;;;;;;;;;46.00;37.25;;;;;11.42;62.64;100928.03;5057116;28;45271;-56
2022/03/04 01:55:08;;;;;;;;;58.50;41.00;;;;;11.98;62.64;101014.66;5057643;28;45448;-57
2022/03/04 01:57:34;;;;;;;;;53.50;41.50;;;;;11.97;62.91;101014.84;5057694;28;45646;-56
2022/03/04 02:00:00;;;;;;;;;60.75;48.25;;;;;11.99;63.14;101013.59;5056251;28;45500;-55
2022/03/04 02:02:25;;;;;;;;;60.50;48.00;;;;;12.00;63.31;101006.19;5057548;28;45404;-56
2022/03/04 02:04:51;;;;;;;;;54.25;43.75;;;;;12.01;62.79;100996.88;5056698;28;45411;-55
2022/03/04 02:07:17;;;;;;;;;60.50;48.00;;;;;12.02;63.25;100996.63;5039545;28;45464;-55
2022/03/04 02:09:42;;;;;;;;;59.50;46.00;;;;;11.98;63.16;100989.03;5057420;28;45948;-56
2022/03/04 02:12:08;;;;;;;;;60.00;48.75;;;;;12.03;63.36;100995.63;5055858;28;45430;-53
2022/03/04 02:14:34;;;;;;;;;58.25;49.00;;;;;12.03;63.36;100992.88;5057540;28;45321;-58
2022/03/04 02:17:00;;;;;;;;;65.00;51.50;;;;;11.86;63.32;100973.22;5057802;28;45227;-58
2022/03/04 02:19:25;;;;;;;;;58.50;48.00;;;;;11.38;63.32;100887.22;5039325;28;48033;-55
2022/03/04 02:21:55;;;;;;;;;58.75;48.25;;;;;12.04;63.33;100994.56;5055754;28;45338;-55
2022/03/04 02:24:22;;;;;;;;;59.20;45.40;;;;;11.81;62.97;100959.25;5057683;28;45479;-54
2022/03/04 02:26:48;;;;;;;;;56.20;44.00;;;;;11.72;63.16;100949.53;5055805;28;45422;-55
2022/03/04 02:29:14;;;;;;;;;50.00;40.80;;;;;11.95;63.35;100984.81;5055497;28;46533;-54
2022/03/04 02:31:40;;;;;;;;;54.00;39.50;;;;;11.90;63.21;100977.22;5057254;28;45432;-55
2022/03/04 02:34:05;;;;;;;;;48.50;38.25;;;;;11.97;63.53;100979.09;5057077;28;45405;-56
2022/03/04 02:36:31;;;;;;;;;47.75;38.50;;;;;11.50;62.83;100903.06;5056308;28;45341;-56
2022/03/04 02:38:56;;;;;;;;;40.25;35.75;;;;;11.87;62.97;100963.91;5055608;28;45585;-54
2022/03/04 02:41:22;;;;;;;;;39.00;35.25;;;;;11.99;62.52;100982.47;5056922;28;45350;-56
2022/03/04 02:43:47;;;;;;;;;35.25;31.00;;;;;11.97;61.94;100982.72;5057124;28;45359;-56
2022/03/04 02:46:13;;;;;;;;;37.75;33.00;;;;;11.93;61.96;100982.28;5057361;28;45362;-58
2022/03/04 02:48:39;;;;;;;;;35.50;34.00;;;;;11.79;62.05;100964.09;5055329;28;45458;-56
2022/03/04 02:51:05;;;;;;;;;37.60;30.20;;;;;11.92;62.26;100997.06;5055688;28;45465;-57
2022/03/04 02:53:30;;;;;;;;;30.75;29.25;;;;;11.90;61.52;100995.63;5056519;28;45421;-56
2022/03/04 02:55:56;;;;;;;;;32.25;28.50;;;;;11.86;61.75;100981.47;5055573;28;45385;-54
2022/03/04 02:58:22;;;;;;;;;30.75;29.50;;;;;11.91;61.52;101002.81;5056374;28;45347;-54
2022/03/04 03:00:47;;;;;;;;;30.00;26.75;;;;;11.86;62.27;100992.47;5056693;28;45352;-53
2022/03/04 03:03:13;;;;;;;;;34.75;28.50;;;;;11.86;61.83;101000.72;5046875;28;45580;-51
2022/03/04 03:05:38;;;;;;;;;35.00;29.00;;;;;11.88;61.98;100994.97;5054718;28;45377;-56
2022/03/04 03:08:04;;;;;;;;;31.50;29.50;;;;;11.89;62.13;100996.66;5052641;28;45360;-56
2022/03/04 03:10:31;;;;;;;;;36.00;30.00;;;;;11.88;62.07;100992.22;5055069;28;45322;-54
2022/03/04 03:12:57;;;;;;;;;29.00;27.60;;;;;11.65;62.25;100957.81;5053208;27;45326;-53
2022/03/04 03:15:22;;;;;;;;;38.50;30.75;;;;;11.53;62.66;100950.19;5055291;28;45432;-53
2022/03/04 03:17:48;;;;;;;;;43.00;36.75;;;;;11.80;62.38;100998.81;5053789;28;46400;-53
2022/03/04 03:20:13;;;;;;;;;42.00;36.25;;;;;11.77;62.41;101010.22;5056522;28;45515;-51
2022/03/04 03:22:39;;;;;;;;;38.00;30.25;;;;;11.76;62.93;101003.06;5054548;28;45316;-55
2022/03/04 03:25:05;;;;;;;;;42.25;35.00;;;;;11.65;63.02;100991.63;5056599;28;45349;-57
2022/03/04 03:27:31;;;;;;;;;50.00;40.20;;;;;11.49;62.45;100964.59;5055936;28;45971;-55
2022/03/04 03:29:56;;;;;;;;;49.00;38.00;;;;;11.50;63.22;100980.88;5054684;28;45482;-54
2022/03/04 03:32:22;;;;;;;;;45.75;38.50;;;;;11.59;63.31;100997.97;5056542;28;45460;-52
2022/03/04 03:34:47;;;;;;;;;51.00;39.50;;;;;11.62;63.12;100999.44;5056309;28;45283;-55
2022/03/04 03:37:12;;;;;;;;;46.50;39.50;;;;;11.51;63.48;100992.69;5056122;28;45317;-53
2022/03/04 03:39:38;;;;;;;;;46.25;38.75;;;;;11.36;63.49;100968.16;5054719;28;45414;-55
2022/03/04 03:42:05;;;;;;;;;46.25;38.25;;;;;11.56;63.64;101012.16;5055223;28;45378;-56
2022/03/04 03:44:30;;;;;;;;;45.00;38.60;;;;;11.55;62.97;101012.34;5056434;28;45583;-57
2022/03/04 03:46:56;;;;;;;;;45.75;38.25;;;;;11.36;63.70;100976.41;5054486;28;48285;-55
2022/03/04 03:49:21;;;;;;;;;55.00;42.25;;;;;11.52;63.60;101016.38;5054555;28;45366;-52
2022/03/04 03:51:48;;;;;;;;;45.75;40.25;;;;;11.49;63.39;101012.16;5088047;27;45552;-54
2022/03/04 03:54:13;;;;;;;;;44.00;37.80;;;;;11.48;63.29;101006.88;5055572;28;45569;-53
2022/03/04 03:56:39;;;;;;;;;45.75;37.75;;;;;11.48;63.67;101015.94;5055700;28;45482;-50
2022/03/04 03:59:04;;;;;;;;;51.50;38.00;;;;;11.46;63.82;101011.72;5055294;28;45448;-55
2022/03/04 04:01:30;;;;;;;;;54.75;40.25;;;;;11.26;63.76;100976.84;5055681;28;45436;-55
2022/03/04 04:03:56;;;;;;;;;48.00;40.00;;;;;11.49;63.61;101011.31;5037527;28;45708;-55
2022/03/04 04:06:21;;;;;;;;;48.75;39.25;;;;;11.47;63.58;101017.00;5054089;28;46569;-54
2022/03/04 04:08:47;;;;;;;;;47.75;39.25;;;;;11.43;63.61;101021.25;5055251;28;45345;-54
2022/03/04 04:11:13;;;;;;;;;51.75;42.50;;;;;11.23;63.80;100989.13;5055595;28;45433;-54
2022/03/04 04:13:38;;;;;;;;;51.75;41.00;;;;;11.43;63.74;101026.75;5025463;28;45378;-54
2022/03/04 04:16:04;;;;;;;;;45.75;39.75;;;;;11.45;63.44;101018.28;5050581;28;46523;-53
2022/03/04 04:18:30;;;;;;;;;49.75;40.75;;;;;11.28;63.83;100985.75;5054626;28;45472;-58
2022/03/04 04:20:55;;;;;;;;;49.00;40.25;;;;;10.93;63.38;100922.72;5037189;28;45364;-56
2022/03/04 04:23:21;;;;;;;;;46.75;38.75;;;;;11.43;64.01;101009.41;5054206;28;45655;-54
2022/03/04 04:25:46;;;;;;;;;51.50;41.50;;;;;11.45;63.85;101007.28;5053785;28;48263;-55
2022/03/04 04:28:12;;;;;;;;;52.75;41.00;;;;;11.48;63.27;101010.47;5053601;28;45547;-52
2022/03/04 04:30:37;;;;;;;;;55.50;44.50;;;;;11.51;63.53;101012.78;5055074;28;45420;-55
2022/03/04 04:33:03;;;;;;;;;18.50;13.25;;;;;11.53;64.01;101018.09;5055460;28;45639;-56
2022/03/04 04:35:29;;;;;;;;;57.75;44.25;;;;;11.24;63.35;100979.81;5054709;28;45871;-58
2022/03/04 04:37:54;;;;;;;;;60.25;45.75;;;;;11.51;63.42;101021.03;5054853;28;45551;-57
2022/03/04 04:40:20;;;;;;;;;50.50;41.00;;;;;11.52;64.18;101025.47;5053965;28;45897;-54
2022/03/04 04:42:45;;;;;;;;;56.75;45.00;;;;;11.50;64.14;101030.34;5055164;28;45487;-54
2022/03/04 04:45:11;;;;;;;;;60.25;46.50;;;;;11.29;63.78;101003.06;5053685;28;48430;-56
2022/03/04 04:47:36;;;;;;;;;54.00;41.75;;;;;11.46;63.95;101028.22;5054613;28;45429;-54
2022/03/04 04:50:02;;;;;;;;;57.00;45.75;;;;;11.47;64.35;101032.69;5055311;28;45456;-53
2022/03/04 04:52:28;;;;;;;;;44.75;35.25;;;;;11.39;64.07;101029.06;5054918;28;45713;-56
2022/03/04 04:54:53;;;;;;;;;43.00;38.75;;;;;11.25;64.65;101011.72;5054360;28;46012;-55
2022/03/04 04:57:19;;;;;;;;;49.25;41.75;;;;;11.45;64.01;101041.13;5053707;28;45414;-53
2022/03/04 04:59:45;;;;;;;;;59.25;45.50;;;;;10.91;64.75;100961.41;5054843;28;45342;-56
2022/03/04 05:02:10;;;;;;;;;51.75;42.50;;;;;11.32;64.52;101043.88;5055113;28;45363;-54
2022/03/04 05:04:36;;;;;;;;;55.50;42.00;;;;;11.26;64.88;101040.03;5054341;28;45390;-54
2022/03/04 05:07:02;;;;;;;;;53.50;41.75;;;;;11.29;64.44;101038.78;5055008;28;45393;-57
2022/03/04 05:09:27;;;;;;;;;54.60;44.00;;;;;11.35;64.69;101043.44;5054550;28;45867;-55
2022/03/04 05:11:53;;;;;;;;;52.50;44.50;;;;;11.41;64.97;101048.09;5054941;28;45417;-57
2022/03/04 05:14:21;;;;;;;;;54.25;45.00;;;;;11.41;64.42;101045.34;5054240;28;45835;-56
2022/03/04 05:16:46;;;;;;;;;57.80;45.60;;;;;11.39;64.27;101048.28;5054522;28;45514;-56
2022/03/04 05:19:12;;;;;;;;;56.00;46.00;;;;;11.26;64.50;101012.56;5018820;28;45754;-56
2022/03/04 05:21:37;;;;;;;;;55.75;44.75;;;;;11.42;64.97;101047.03;5031895;28;45310;-55
2022/03/04 05:24:04;;;;;;;;;55.50;45.25;;;;;11.45;64.38;101054.88;5032785;28;46388;-54
2022/03/04 05:26:34;;;;;;;;;55.40;43.80;;;;;11.42;64.62;101058.03;5033165;28;46331;-55
2022/03/04 05:29:00;;;;;;;;;59.80;46.40;;;;;11.43;64.60;101057.00;5034367;28;45893;-56
2022/03/04 05:31:26;;;;;;;;;60.60;46.80;;;;;11.03;64.92;100982.72;5034421;28;45472;-56
2022/03/04 05:33:52;;;;;;;;;60.60;48.20;;;;;11.39;64.86;101040.03;5035658;28;46003;-56
2022/03/04 05:36:18;;;;;;;;;58.50;45.75;;;;;11.53;64.70;101062.06;5037872;28;45285;-54
2022/03/04 05:38:43;;;;;;;;;61.00;47.40;;;;;11.53;64.57;101062.06;5037320;28;45852;-51
2022/03/04 05:41:09;;;;;;;;;52.50;42.00;;;;;11.56;64.83;101066.28;5053503;28;45383;-55
2022/03/04 05:43:35;;;;;;;;;60.50;47.25;;;;;11.56;64.95;101058.03;5037391;28;45965;-54
2022/03/04 05:46:01;;;;;;;;;60.00;47.00;;;;;11.38;64.42;101027.38;5037571;28;45439;-55
2022/03/04 05:48:26;;;;;;;;;58.00;46.80;;;;;11.56;64.49;101066.28;5019695;28;45439;-56
2022/03/04 05:50:52;;;;;;;;;60.25;46.50;;;;;11.56;64.81;101064.38;5038017;28;45984;-57
2022/03/04 05:53:18;;;;;;;;;62.00;44.25;;;;;11.56;64.23;101063.53;5036172;28;46259;-55
2022/03/04 05:55:43;;;;;;;;;61.75;48.50;;;;;11.28;64.82;101004.97;5048455;28;45480;-52
2022/03/04 05:58:08;;;;;;;;;57.00;42.25;;;;;11.57;64.93;101057.00;5057783;28;45803;-54
2022/03/04 06:00:34;;;;;;;;;62.00;47.25;;;;;11.04;64.61;100973.47;5090546;27;45509;-55
2022/03/04 06:02:59;;;;;;;;;59.50;47.00;;;;;11.59;64.90;101060.38;5057533;28;46825;-56
2022/03/04 06:05:25;;;;;;;;;52.25;40.75;;;;;11.34;64.96;101025.25;5056332;28;45408;-56
2022/03/04 06:07:51;;;;;;;;;59.75;46.50;;;;;11.57;64.46;101063.31;5056078;28;45373;-53
2022/03/04 06:10:16;;;;;;;;;56.25;46.75;;;;;11.51;64.80;101066.91;5057459;28;45369;-55
2022/03/04 06:12:42;;;;;;;;;57.50;44.75;;;;;11.50;64.67;101062.47;5056266;28;46167;-54
2022/03/04 06:15:08;;;;;;;;;60.50;47.00;;;;;11.57;64.79;101073.50;5057274;28;45889;-55
2022/03/04 06:17:34;;;;;;;;;60.40;46.60;;;;;11.57;64.86;101068.81;5030735;28;45764;-55
2022/03/04 06:19:59;;;;;;;;;59.50;47.75;;;;;11.60;64.71;101076.66;5051119;28;45341;-58
2022/03/04 06:22:25;;;;;;;;;63.75;50.75;;;;;11.61;64.80;101074.75;5057058;28;45414;-57
2022/03/04 06:24:50;;;;;;;;;58.50;47.25;;;;;11.61;64.97;101077.50;5057251;28;45386;-55
2022/03/04 06:27:16;;;;;;;;;59.50;46.50;;;;;11.62;64.75;101081.94;5057274;28;45373;-55
2022/03/04 06:29:41;;;;;;;;;55.25;43.25;;;;;11.58;64.44;101069.69;5057415;28;45358;-53
2022/03/04 06:32:07;;;;;;;;;57.00;45.75;;;;;11.66;64.48;101085.97;5057182;28;45321;-55
2022/03/04 06:34:34;;;;;;;;;67.50;52.75;;;;;11.69;64.70;101088.28;5056909;28;45422;-54
2022/03/04 06:37:00;;;;;;;;;60.40;49.20;;;;;11.66;64.32;101091.47;5057161;28;45390;-55
2022/03/04 06:39:25;;;;;;;;;59.25;47.75;;;;;11.61;64.39;101086.59;5057217;28;45385;-56
2022/03/04 06:41:51;;;;;;;;;57.75;44.75;;;;;11.45;63.85;101067.75;5055723;28;45531;-56
2022/03/04 06:44:16;;;;;;;;;57.25;41.75;;;;;11.62;64.16;101101.19;5056548;28;45839;-54
2022/03/04 06:46:42;;;;;;;;;54.75;45.25;;;;;11.65;64.12;101098.84;5056552;28;45404;-53
2022/03/04 06:49:10;;;;;;;;;56.50;43.50;;;;;11.66;63.79;101108.81;5057069;28;45295;-56
2022/03/04 06:51:36;;;;;;;;;58.75;48.50;;;;;11.70;63.84;101117.50;5056530;28;46039;-53
2022/03/04 06:54:02;;;;;;;;;55.80;45.00;;;;;11.68;63.47;101118.75;5056668;28;45366;-56
2022/03/04 06:56:28;;;;;;;;;57.00;45.00;;;;;11.71;64.01;101129.31;5056620;28;45439;-54
2022/03/04 06:58:53;;;;;;;;;59.75;48.75;;;;;11.70;64.06;101124.88;5056869;28;45557;-55
2022/03/04 07:01:19;;;;;;;;;59.75;45.50;;;;;11.68;64.05;101127.00;5056566;27;45744;-55
2022/03/04 07:03:44;;;;;;;;;56.75;44.25;;;;;11.55;63.65;101108.56;5056178;28;45501;-55
2022/03/04 07:06:10;;;;;;;;;61.00;47.00;;;;;11.68;63.84;101129.75;5055624;28;45381;-52
2022/03/04 07:08:37;;;;;;;;;61.50;47.75;;;;;11.63;63.97;101122.13;5055578;28;45495;-54
2022/03/04 07:11:03;;;;;;;;;57.00;42.75;;;;;11.69;64.12;101125.94;5055205;28;47043;-52
2022/03/04 07:13:29;;;;;;;;;61.00;47.80;;;;;11.63;64.38;101133.13;5055418;28;45251;-51
2022/03/04 07:15:55;;;;;;;;;56.50;45.75;;;;;11.54;64.14;101107.75;5055250;28;45390;-51
2022/03/04 07:18:20;;;;;;;;;61.50;48.00;;;;;11.72;64.04;101131.00;5055697;28;45188;-56
2022/03/04 07:20:46;;;;;;;;;52.75;42.75;;;;;11.54;63.95;101091.25;5056074;28;45520;-57
2022/03/04 07:23:11;;;;;;;;;68.75;50.00;;;;;11.76;63.97;101130.41;5056501;28;45263;-56
2022/03/04 07:25:37;;;;;;;;;60.25;46.50;;;;;11.76;63.82;101138.66;5088852;27;45340;-53
2022/03/04 07:28:03;;;;;;;;;61.50;49.00;;;;;11.60;63.45;101106.91;5055315;28;45440;-53
2022/03/04 07:30:29;;;;;;;;;61.00;47.00;;;;;11.83;64.08;101143.28;5037706;28;47405;-54
2022/03/04 07:32:54;;;;;;;;;58.50;47.00;;;;;11.86;63.81;101142.88;5055825;28;45436;-54
2022/03/04 07:35:20;;;;;;;;;60.25;47.25;;;;;11.87;63.58;101147.31;5054678;28;45550;-58
2022/03/04 07:37:45;;;;;;;;;64.25;49.25;;;;;11.87;63.45;101136.31;5054834;28;45449;-58
2022/03/04 07:40:13;;;;;;;;;58.25;48.00;;;;;11.73;63.18;101117.06;5071407;28;47429;-52
2022/03/04 07:42:38;;;;;;;;;60.00;45.60;;;;;11.79;63.57;101129.97;5028671;28;45382;-59
2022/03/04 07:45:06;;;;;;;;;23.50;12.75;;;;;11.45;62.71;101078.75;5038026;28;45382;-56
2022/03/04 07:47:32;;;;;;;;;57.80;46.40;;;;;11.86;63.46;101149.25;5055775;28;45588;-61
2022/03/04 07:49:58;;;;;;;;;58.75;46.00;;;;;11.75;63.21;101125.09;5055705;28;45463;-57
2022/03/04 07:52:28;;;;;;;;;59.50;45.75;;;;;11.92;63.21;101148.38;5054055;28;45442;-57
2022/03/04 07:54:54;;;;;;;;;61.80;47.40;;;;;11.81;63.06;101127.00;5055147;28;45610;-59
2022/03/04 07:57:19;;;;;;;;;62.25;47.50;;;;;12.01;62.91;101160.00;5055747;28;45598;-60
2022/03/04 07:59:45;;;;;;;;;57.00;42.75;;;;;12.04;62.65;101158.78;5087791;27;47168;-54
2022/03/04 08:02:10;;;;;;;;;57.00;46.25;;;;;12.07;62.63;101161.13;5055778;28;45265;-50
2022/03/04 08:04:36;;;;;;;;;58.50;47.25;;;;;12.10;62.71;101160.69;5054422;28;45394;-57
2022/03/04 08:07:02;;;;;;;;;64.50;48.75;;;;;12.04;62.75;101156.03;5055645;28;45245;-52
2022/03/04 08:09:27;;;;;;;;;63.25;47.50;;;;;12.03;62.97;101159.81;5053869;28;45585;-54
2022/03/04 08:11:53;;;;;;;;;61.00;44.25;;;;;12.05;62.75;101160.47;5053687;28;45588;-58
2022/03/04 08:14:18;;;;;;;;;65.75;48.50;;;;;12.03;62.94;101159.81;5054280;28;45533;-54
2022/03/04 08:16:45;;;;;;;;;59.75;47.00;;;;;12.04;62.85;101167.88;5051880;28;45516;-56
2022/03/04 08:19:10;;;;;;;;;57.00;46.40;;;;;12.01;62.59;101170.19;5054434;28;46041;-56
2022/03/04 08:21:36;;;;;;;;;58.75;45.25;;;;;12.03;62.70;101171.69;5053545;28;45666;-55
2022/03/04 08:24:01;;;;;;;;;59.50;46.75;;;;;11.83;62.76;101141.38;5055156;28;45443;-56
2022/03/04 08:26:27;;;;;;;;;64.00;49.25;;;;;12.01;63.10;101182.00;5086366;27;45464;-55
2022/03/04 08:28:53;;;;;;;;;58.50;46.25;;;;;12.00;62.80;101191.34;5054502;28;45515;-55
2022/03/04 08:31:18;;;;;;;;;55.50;46.00;;;;;12.00;62.92;101180.31;5055091;28;45298;-55
2022/03/04 08:33:44;;;;;;;;;66.25;51.00;;;;;12.01;62.71;101187.53;5055064;28;45314;-52
2022/03/04 08:36:10;;;;;;;;;60.25;48.25;;;;;12.03;62.72;101185.47;5045302;28;45620;-53
2022/03/04 08:38:36;;;;;;;;;60.00;48.50;;;;;12.04;62.58;101184.41;5049744;28;46477;-56
2022/03/04 08:41:02;;;;;;;;;66.00;51.00;;;;;12.04;62.45;101181.66;5053646;28;45368;-58
2022/03/04 08:43:28;;;;;;;;;60.50;48.25;;;;;12.04;62.63;101192.66;5053969;28;45459;-54
2022/03/04 08:45:53;;;;;;;;;64.50;51.25;;;;;11.97;62.92;101189.00;5037385;28;45408;-59
2022/03/04 08:48:19;;;;;;;;;65.25;51.25;;;;;12.02;62.54;101193.88;5044088;28;45726;-55
2022/03/04 08:50:45;;;;;;;;;70.00;51.75;;;;;12.10;62.42;101193.69;5053219;28;45378;-54
2022/03/04 08:53:11;;;;;;;;;59.60;48.80;;;;;12.08;62.67;101193.06;5054206;28;45226;-53
2022/03/04 08:55:36;;;;;;;;;65.25;51.50;;;;;12.14;62.67;101199.63;5055489;28;45626;-54
2022/03/04 08:58:02;;;;;;;;;64.75;50.25;;;;;12.12;62.78;101190.75;5087080;27;47490;-54
2022/03/04 09:00:28;;;;;;;;;67.25;50.75;;;;;12.24;62.44;101199.19;5053325;28;45369;-56
2022/03/04 09:02:55;;;;;;;;;68.50;50.25;;;;;12.30;62.09;101199.22;5052041;28;45335;-56
2022/03/04 09:05:21;;;;;;;;;65.50;51.00;;;;;12.28;62.16;101189.47;5054828;28;45584;-55
2022/03/04 09:07:47;;;;;;;;;66.75;51.75;;;;;12.29;62.50;101192.03;5053138;28;47069;-58
2022/03/04 09:10:12;;;;;;;;;63.00;50.25;;;;;12.37;61.65;101201.94;5057801;28;45323;-57
2022/03/04 09:12:38;;;;;;;;;62.75;51.25;;;;;12.34;61.70;101200.47;5057363;28;45436;-57
2022/03/04 09:15:05;;;;;;;;;72.00;52.25;;;;;12.22;61.75;101188.41;5055494;28;45523;-54
2022/03/04 09:17:31;;;;;;;;;64.50;51.25;;;;;12.41;61.89;101199.63;5052238;28;45394;-56
2022/03/04 09:19:56;;;;;;;;;67.25;51.00;;;;;12.45;61.88;101198.13;5056888;28;45553;-54
2022/03/04 09:22:22;;;;;;;;;65.00;50.75;;;;;12.50;61.45;101208.50;5040172;28;45463;-54
2022/03/04 09:24:47;;;;;;;;;66.50;52.50;;;;;12.54;61.29;101201.53;5056969;28;45398;-55
2022/03/04 09:27:13;;;;;;;;;72.25;54.00;;;;;12.53;61.02;101205.34;5054971;28;45949;-57
2022/03/04 09:29:38;;;;;;;;;67.25;51.75;;;;;12.60;61.30;101211.69;5057627;28;45374;-58
2022/03/04 09:32:04;;;;;;;;;69.75;49.25;;;;;12.17;60.77;101133.19;5057696;28;45339;-53
2022/03/04 09:34:33;;;;;;;;;69.25;54.75;;;;;12.52;60.90;101198.97;5058117;28;45610;-55
2022/03/04 09:36:58;;;;;;;;;65.75;51.75;;;;;12.60;60.70;101204.25;5056057;28;48145;-56
2022/03/04 09:39:24;;;;;;;;;70.25;54.50;;;;;12.57;60.82;101185.41;5055005;28;45482;-54
2022/03/04 09:41:50;;;;;;;;;71.50;53.00;;;;;12.56;60.68;101180.97;5057769;28;45442;-54
2022/03/04 09:44:16;;;;;;;;;69.50;53.00;;;;;12.70;60.66;101197.47;5040333;28;45450;-54
2022/03/04 09:46:48;;;;;;;;;65.50;52.00;;;;;12.79;60.65;101204.44;5037048;28;46044;-56
2022/03/04 09:49:16;;;;;;;;;67.20;52.40;;;;;12.81;60.19;101205.06;5045285;28;45437;-55
2022/03/04 09:51:42;;;;;;;;;65.00;51.75;;;;;12.74;60.50;101201.47;5056058;28;45346;-56
2022/03/04 09:54:08;;;;;;;;;65.50;52.00;;;;;12.78;60.53;101211.00;5040514;27;45370;-56
2022/03/04 09:56:33;;;;;;;;;64.00;50.50;;;;;12.81;60.13;101207.81;5053869;28;45371;-53
2022/03/04 09:58:59;;;;;;;;;70.50;53.50;;;;;12.84;60.02;101210.16;5057543;28;45322;-58
2022/03/04 10:01:24;;;;;;;;;68.25;55.25;;;;;12.84;60.04;101206.53;5055398;28;45426;-58
2022/03/04 10:03:52;;;;;;;;;70.75;52.00;;;;;12.87;59.98;101206.94;5056164;28;45695;-56
2022/03/04 10:06:18;;;;;;;;;70.00;52.75;;;;;12.94;60.03;101214.34;5051107;28;46567;-55
2022/03/04 10:08:50;;;;;;;;;70.40;53.20;;;;;13.02;59.96;101203.94;5053297;28;45417;-57
2022/03/04 10:11:32;;;;;;;;;67.75;51.25;;;;;13.09;60.24;101209.44;5055406;28;45444;-57
2022/03/04 10:14:00;;;;;;;;;71.25;55.50;;;;;13.11;59.82;101209.19;5056445;28;45590;-55
2022/03/04 10:16:33;;;;;;;;;70.75;54.00;;;;;13.11;59.12;101209.19;5056101;28;46495;-55
2022/03/04 10:19:16;;;;;;;;;74.00;56.60;;;;;13.11;59.14;101193.53;5088811;27;46006;-53
2022/03/04 10:21:57;;;;;;;;;71.00;54.80;;;;;13.25;59.54;101196.22;5054646;28;45567;-54
2022/03/04 10:24:34;;;;;;;;;73.25;58.00;;;;;13.25;59.01;101196.22;5056514;28;45332;-54
2022/03/04 10:26:59;;;;;;;;;70.75;54.00;;;;;13.20;59.69;101207.06;5008018;27;46048;-52
2022/03/04 10:29:25;;;;;;;;;72.25;52.75;;;;;13.24;59.76;101213.84;5043857;28;45461;-54
2022/03/04 10:32:14;;;;;;;;;73.25;57.50;;;;;13.23;59.21;101217.66;5048726;28;45889;-53
2022/03/04 10:34:43;;;;;;;;;74.50;57.25;;;;;13.21;59.32;101212.34;5033255;28;45875;-55
2022/03/04 10:37:09;;;;;;;;;68.50;54.50;;;;;13.20;59.65;101207.06;5065323;28;45908;-51
2022/03/04 10:39:34;;;;;;;;;64.00;53.75;;;;;13.23;58.95;101207.47;5033652;27;45810;-54
2022/03/04 10:42:00;;;;;;;;;72.50;54.50;;;;;13.23;58.72;101212.16;5049556;28;45512;-55
2022/03/04 10:44:29;;;;;;;;;71.00;52.75;;;;;13.06;58.92;101190.56;5050467;28;45530;-54
2022/03/04 10:46:58;;;;;;;;;70.75;56.75;;;;;13.17;58.83;101215.78;5048694;28;48459;-58
2022/03/04 10:49:25;;;;;;;;;67.60;52.80;;;;;13.13;58.31;101215.38;5023992;28;45992;-52
2022/03/04 10:51:50;;;;;;;;;69.25;55.00;;;;;13.12;58.79;101217.25;5033224;28;45945;-54
2022/03/04 10:54:17;;;;;;;;;70.50;55.25;;;;;13.04;58.96;101220.25;5051749;28;45458;-56
2022/03/04 10:56:55;;;;;;;;;75.50;57.25;;;;;13.08;59.44;101210.47;5051820;28;46461;-57
2022/03/04 10:59:24;;;;;;;;;71.50;52.50;;;;;13.10;58.68;101207.50;5051493;28;45437;-54
2022/03/04 11:01:50;;;;;;;;;72.50;55.75;;;;;13.15;59.38;101207.72;5051168;28;45813;-58
2022/03/04 11:04:18;;;;;;;;;70.75;52.75;;;;;12.83;58.91;101152.50;5034695;28;45768;-56